createdAt,value
2023-05-05T00:00:53.876Z,0.51
2023-05-05T00:01:53.921Z,0.51
2023-05-05T00:02:53.960Z,0.51
2023-05-05T00:03:53.982Z,0.52
2023-05-05T00:04:53.966Z,0.51
2023-05-05T00:05:53.994Z,0.51
2023-05-05T00:06:54.035Z,0.51
2023-05-05T00:07:54.050Z,0.51
2023-05-05T00:08:54.423Z,0.51
2023-05-05T00:09:54.082Z,0.50
2023-05-05T00:10:54.115Z,0.51
2023-05-05T00:11:54.135Z,0.51
2023-05-05T00:12:54.208Z,0.52
2023-05-05T00:13:54.179Z,0.51
2023-05-05T00:14:54.203Z,0.50
2023-05-05T00:15:54.212Z,0.51
2023-05-05T00:16:54.250Z,0.50
2023-05-05T00:17:54.275Z,0.51
2023-05-05T00:18:54.262Z,0.50
2023-05-05T00:19:54.285Z,0.51
2023-05-05T00:20:54.312Z,0.51
2023-05-05T00:21:54.329Z,0.50
2023-05-05T00:22:54.356Z,0.50
2023-05-05T00:23:54.377Z,0.50
2023-05-05T00:24:55.747Z,0.50
2023-05-05T00:25:54.434Z,0.51
2023-05-05T00:26:54.453Z,0.51
2023-05-05T00:27:54.500Z,0.51
2023-05-05T00:28:54.502Z,0.51
2023-05-05T00:29:54.527Z,0.51
2023-05-05T00:30:54.581Z,0.51
2023-05-05T00:31:54.583Z,0.51
2023-05-05T00:32:54.639Z,0.51
2023-05-05T00:33:56.779Z,0.51
2023-05-05T00:34:54.647Z,0.51
2023-05-05T00:35:54.669Z,0.51
2023-05-05T00:36:54.702Z,0.50
2023-05-05T00:37:54.708Z,0.50
2023-05-05T00:38:54.733Z,0.51
2023-05-05T00:39:54.774Z,0.51
2023-05-05T00:40:54.796Z,0.51
2023-05-05T00:41:54.806Z,0.51
2023-05-05T00:42:54.849Z,0.50
2023-05-05T00:43:54.862Z,0.51
2023-05-05T00:44:54.887Z,0.51
2023-05-05T00:45:54.901Z,0.51
2023-05-05T00:46:55.386Z,0.51
2023-05-05T00:47:55.004Z,0.50
2023-05-05T00:48:55.035Z,0.51
2023-05-05T00:49:55.001Z,0.51
2023-05-05T00:50:55.030Z,0.50
2023-05-05T00:51:55.039Z,0.51
2023-05-05T00:52:55.081Z,0.51
2023-05-05T00:53:55.100Z,0.50
2023-05-05T00:54:55.118Z,0.51
2023-05-05T00:55:55.153Z,0.51
2023-05-05T00:56:55.170Z,0.51
2023-05-05T00:57:55.202Z,0.51
2023-05-05T00:58:55.237Z,0.52
2023-05-05T00:59:55.249Z,0.51
2023-05-05T01:00:55.277Z,0.50
2023-05-05T01:01:55.347Z,0.50
2023-05-05T01:02:55.478Z,0.51
2023-05-05T01:03:55.370Z,0.51
2023-05-05T01:04:55.391Z,0.51
2023-05-05T01:05:55.410Z,0.51
2023-05-05T01:06:55.435Z,0.51
2023-05-05T01:07:55.456Z,0.50
2023-05-05T01:08:55.492Z,0.50
2023-05-05T01:10:07.277Z,0.51
2023-05-05T01:10:56.527Z,0.51
2023-05-05T01:11:55.510Z,0.51
2023-05-05T01:12:55.547Z,0.51
2023-05-05T01:13:55.514Z,0.51
2023-05-05T01:14:55.505Z,0.51
2023-05-05T01:15:55.523Z,0.51
2023-05-05T01:16:55.498Z,0.51
2023-05-05T01:17:55.535Z,0.51
2023-05-05T01:18:55.499Z,0.51
2023-05-05T01:19:55.487Z,0.51
2023-05-05T01:20:55.485Z,0.51
2023-05-05T01:21:55.473Z,0.50
2023-05-05T01:22:56.238Z,0.50
2023-05-05T01:23:55.471Z,0.50
2023-05-05T01:24:55.464Z,0.51
2023-05-05T01:25:55.480Z,0.51
2023-05-05T01:26:55.502Z,0.50
2023-05-05T01:27:55.539Z,0.50
2023-05-05T01:28:55.580Z,0.51
2023-05-05T01:29:55.601Z,0.51
2023-05-05T01:30:55.636Z,0.51
2023-05-05T01:31:55.691Z,0.51
2023-05-05T01:32:55.738Z,0.50
2023-05-05T01:33:56.780Z,0.51
2023-05-05T01:34:55.763Z,0.50
2023-05-05T01:35:55.796Z,0.51
2023-05-05T01:36:55.813Z,0.51
2023-05-05T01:37:55.868Z,0.50
2023-05-05T01:38:55.878Z,0.50
2023-05-05T01:39:55.903Z,0.51
2023-05-05T01:40:55.944Z,0.51
2023-05-05T01:41:55.965Z,0.51
2023-05-05T01:42:55.989Z,0.51
2023-05-05T01:43:56.003Z,0.51
2023-05-05T01:44:56.045Z,0.51
2023-05-05T01:45:56.116Z,0.52
2023-05-05T01:46:56.115Z,0.51
2023-05-05T01:47:56.174Z,0.51
2023-05-05T01:48:56.164Z,0.51
2023-05-05T01:49:56.194Z,0.51
2023-05-05T01:50:56.227Z,0.51
2023-05-05T01:51:56.264Z,0.51
2023-05-05T01:52:56.291Z,0.52
2023-05-05T01:53:56.336Z,0.51
2023-05-05T01:54:56.362Z,0.51
2023-05-05T01:55:56.394Z,0.51
2023-05-05T01:56:56.421Z,0.51
2023-05-05T01:57:56.810Z,0.51
2023-05-05T01:58:56.470Z,0.51
2023-05-05T01:59:56.496Z,0.51
2023-05-05T02:00:56.700Z,0.52
2023-05-05T02:01:57.689Z,0.51
2023-05-05T02:02:56.750Z,0.52
2023-05-05T02:03:56.624Z,0.52
2023-05-05T02:04:56.663Z,0.51
2023-05-05T02:05:56.685Z,0.51
2023-05-05T02:06:56.726Z,0.51
2023-05-05T02:07:56.763Z,0.51
2023-05-05T02:08:56.789Z,0.51
2023-05-05T02:09:56.822Z,0.51
2023-05-05T02:10:56.849Z,0.51
2023-05-05T02:11:57.835Z,0.51
2023-05-05T02:12:57.038Z,0.52
2023-05-05T02:13:56.957Z,0.51
2023-05-05T02:14:56.985Z,0.51
2023-05-05T02:15:57.041Z,0.51
2023-05-05T02:16:57.050Z,0.51
2023-05-05T02:17:57.117Z,0.51
2023-05-05T02:18:57.117Z,0.51
2023-05-05T02:19:57.156Z,0.51
2023-05-05T02:20:57.184Z,0.51
2023-05-05T02:21:57.243Z,0.51
2023-05-05T02:22:57.252Z,0.52
2023-05-05T02:23:57.274Z,0.51
2023-05-05T02:24:57.290Z,0.51
2023-05-05T02:25:57.327Z,0.52
2023-05-05T02:26:57.350Z,0.51
2023-05-05T02:27:57.415Z,0.51
2023-05-05T02:28:57.384Z,0.51
2023-05-05T02:29:57.401Z,0.51
2023-05-05T02:30:57.560Z,0.51
2023-05-05T02:31:57.452Z,0.50
2023-05-05T02:32:57.560Z,0.51
2023-05-05T02:33:57.528Z,0.50
2023-05-05T02:34:57.552Z,0.50
2023-05-05T02:35:57.595Z,0.51
2023-05-05T02:36:57.621Z,0.51
2023-05-05T02:37:57.651Z,0.51
2023-05-05T02:38:57.674Z,0.51
2023-05-05T02:39:57.701Z,0.51
2023-05-05T02:40:57.732Z,0.50
2023-05-05T02:41:57.758Z,0.51
2023-05-05T02:42:57.796Z,0.50
2023-05-05T02:43:57.813Z,0.50
2023-05-05T02:44:57.836Z,0.51
2023-05-05T02:45:57.861Z,0.50
2023-05-05T02:46:57.891Z,0.50
2023-05-05T02:47:58.000Z,0.51
2023-05-05T02:48:57.946Z,0.50
2023-05-05T02:49:57.968Z,0.51
2023-05-05T02:50:58.005Z,0.51
2023-05-05T02:51:58.039Z,0.51
2023-05-05T02:52:58.046Z,0.51
2023-05-05T02:53:59.305Z,0.51
2023-05-05T02:54:58.102Z,0.52
2023-05-05T02:55:58.130Z,0.50
2023-05-05T02:56:58.171Z,0.50
2023-05-05T02:57:58.174Z,0.51
2023-05-05T02:58:58.204Z,0.52
2023-05-05T02:59:58.229Z,0.51
2023-05-05T03:00:58.255Z,0.51
2023-05-05T03:01:58.311Z,0.51
2023-05-05T03:02:58.360Z,0.52
2023-05-05T03:03:58.347Z,0.51
2023-05-05T03:04:58.335Z,0.51
2023-05-05T03:05:58.361Z,0.51
2023-05-05T03:06:58.367Z,0.51
2023-05-05T03:07:58.399Z,0.51
2023-05-05T03:08:58.414Z,0.51
2023-05-05T03:10:00.294Z,0.51
2023-05-05T03:10:58.468Z,0.51
2023-05-05T03:11:58.485Z,0.51
2023-05-05T03:12:58.532Z,0.51
2023-05-05T03:13:59.792Z,0.52
2023-05-05T03:14:58.546Z,0.51
2023-05-05T03:15:58.632Z,0.51
2023-05-05T03:16:58.581Z,0.51
2023-05-05T03:17:58.622Z,0.51
2023-05-05T03:18:58.638Z,0.51
2023-05-05T03:19:58.634Z,0.51
2023-05-05T03:20:58.668Z,0.51
2023-05-05T03:21:58.681Z,0.51
2023-05-05T03:22:58.705Z,0.51
2023-05-05T03:23:58.728Z,0.52
2023-05-05T03:24:58.746Z,0.51
2023-05-05T03:25:58.786Z,0.51
2023-05-05T03:26:58.805Z,0.52
2023-05-05T03:27:58.827Z,0.50
2023-05-05T03:28:58.866Z,0.51
2023-05-05T03:29:58.873Z,0.51
2023-05-05T03:30:58.905Z,0.52
2023-05-05T03:31:58.957Z,0.52
2023-05-05T03:32:58.980Z,0.51
2023-05-05T03:33:58.975Z,0.52
2023-05-05T03:34:58.996Z,0.52
2023-05-05T03:35:59.038Z,0.51
2023-05-05T03:36:59.055Z,0.52
2023-05-05T03:37:59.076Z,0.51
2023-05-05T03:38:59.096Z,0.52
2023-05-05T03:40:00.334Z,0.51
2023-05-05T03:40:59.325Z,0.52
2023-05-05T03:41:59.174Z,0.52
2023-05-05T03:42:59.212Z,0.51
2023-05-05T03:43:59.216Z,0.51
2023-05-05T03:44:59.605Z,0.51
2023-05-05T03:45:59.368Z,0.52
2023-05-05T03:46:59.291Z,0.51
2023-05-05T03:47:59.665Z,0.51
2023-05-05T03:48:59.344Z,0.52
2023-05-05T03:49:59.704Z,0.51
2023-05-05T03:50:59.384Z,0.51
2023-05-05T03:51:59.402Z,0.51
2023-05-05T03:52:59.429Z,0.51
2023-05-05T03:53:59.454Z,0.51
2023-05-05T03:54:59.876Z,0.50
2023-05-05T03:55:59.498Z,0.50
2023-05-05T03:56:59.521Z,0.51
2023-05-05T03:57:59.553Z,0.51
2023-05-05T03:58:59.574Z,0.51
2023-05-05T03:59:59.599Z,0.51
2023-05-05T04:00:59.626Z,0.51
2023-05-05T04:01:59.661Z,0.51
2023-05-05T04:02:59.737Z,0.50
2023-05-05T04:03:59.733Z,0.51
2023-05-05T04:04:59.705Z,0.51
2023-05-05T04:05:59.729Z,0.51
2023-05-05T04:06:59.752Z,0.51
2023-05-05T04:07:59.771Z,0.51
2023-05-05T04:08:59.798Z,0.51
2023-05-05T04:09:59.831Z,0.51
2023-05-05T04:10:59.859Z,0.51
2023-05-05T04:11:59.874Z,0.51
2023-05-05T04:12:59.959Z,0.51
2023-05-05T04:13:59.932Z,0.51
2023-05-05T04:14:59.956Z,0.50
2023-05-05T04:16:00.065Z,0.51
2023-05-05T04:17:00.004Z,0.51
2023-05-05T04:18:00.102Z,0.51
2023-05-05T04:19:00.100Z,0.51
2023-05-05T04:20:00.147Z,0.51
2023-05-05T04:21:00.832Z,0.51
2023-05-05T04:22:00.265Z,0.50
2023-05-05T04:23:00.167Z,0.51
2023-05-05T04:24:00.205Z,0.51
2023-05-05T04:25:00.251Z,0.50
2023-05-05T04:26:00.252Z,0.50
2023-05-05T04:27:00.254Z,0.51
2023-05-05T04:28:00.284Z,0.50
2023-05-05T04:29:00.299Z,0.50
2023-05-05T04:30:00.332Z,0.50
2023-05-05T04:31:00.392Z,0.50
2023-05-05T04:32:00.420Z,0.51
2023-05-05T04:33:00.457Z,0.51
2023-05-05T04:34:00.977Z,0.51
2023-05-05T04:35:00.440Z,0.51
2023-05-05T04:36:00.463Z,0.51
2023-05-05T04:37:01.883Z,0.51
2023-05-05T04:38:00.497Z,0.51
2023-05-05T04:39:00.559Z,0.50
2023-05-05T04:40:00.528Z,0.50
2023-05-05T04:41:00.555Z,0.51
2023-05-05T04:42:00.584Z,0.51
2023-05-05T04:43:01.904Z,0.50
2023-05-05T04:44:00.642Z,0.51
2023-05-05T04:45:00.751Z,0.51
2023-05-05T04:46:00.660Z,0.51
2023-05-05T04:47:00.667Z,0.50
2023-05-05T04:48:00.727Z,0.51
2023-05-05T04:49:00.705Z,0.50
2023-05-05T04:50:00.750Z,0.51
2023-05-05T04:51:00.746Z,0.51
2023-05-05T04:52:00.772Z,0.50
2023-05-05T04:53:00.808Z,0.51
2023-05-05T04:54:00.910Z,0.51
2023-05-05T04:55:00.840Z,0.51
2023-05-05T04:56:00.856Z,0.51
2023-05-05T04:57:00.874Z,0.51
2023-05-05T04:58:00.891Z,0.50
2023-05-05T04:59:00.920Z,0.51
2023-05-05T05:00:01.090Z,0.51
2023-05-05T05:01:00.962Z,0.51
2023-05-05T05:02:01.026Z,0.51
2023-05-05T05:03:01.092Z,0.51
2023-05-05T05:04:01.039Z,0.50
2023-05-05T05:05:01.045Z,0.50
2023-05-05T05:06:01.068Z,0.51
2023-05-05T05:07:01.079Z,0.51
2023-05-05T05:08:01.114Z,0.50
2023-05-05T05:09:01.138Z,0.51
2023-05-05T05:10:01.168Z,0.50
2023-05-05T05:11:01.207Z,0.50
2023-05-05T05:12:01.208Z,0.50
2023-05-05T05:13:01.258Z,0.50
2023-05-05T05:14:01.260Z,0.51
2023-05-05T05:15:01.278Z,0.50
2023-05-05T05:16:01.329Z,0.51
2023-05-05T05:17:01.314Z,0.51
2023-05-05T05:18:01.360Z,0.51
2023-05-05T05:19:01.878Z,0.51
2023-05-05T05:20:01.385Z,0.51
2023-05-05T05:21:01.428Z,0.50
2023-05-05T05:22:01.473Z,0.51
2023-05-05T05:23:01.503Z,0.49
2023-05-05T05:24:01.504Z,0.50
2023-05-05T05:25:01.563Z,0.50
2023-05-05T05:26:01.596Z,0.50
2023-05-05T05:27:01.700Z,0.51
2023-05-05T05:28:10.241Z,0.50
2023-05-05T05:29:02.707Z,0.47
2023-05-05T05:30:01.711Z,0.44
2023-05-05T05:31:01.721Z,0.37
2023-05-05T05:32:01.756Z,0.36
2023-05-05T05:33:01.753Z,0.36
2023-05-05T05:34:01.713Z,0.43
2023-05-05T05:35:01.734Z,0.51
2023-05-05T05:36:01.740Z,0.51
2023-05-05T05:37:01.744Z,0.51
2023-05-05T05:38:01.745Z,0.51
2023-05-05T05:39:01.757Z,0.52
2023-05-05T05:40:01.798Z,0.51
2023-05-05T05:41:01.812Z,0.50
2023-05-05T05:42:01.840Z,0.50
2023-05-05T05:43:01.839Z,0.55
2023-05-05T05:44:01.848Z,0.54
2023-05-05T05:45:01.872Z,0.54
2023-05-05T05:46:01.916Z,0.56
2023-05-05T05:47:01.905Z,0.58
2023-05-05T05:48:01.964Z,0.57
2023-05-05T05:49:01.947Z,0.59
2023-05-05T05:50:01.949Z,0.55
2023-05-05T05:51:01.957Z,0.55
2023-05-05T05:52:01.964Z,0.53
2023-05-05T05:53:01.992Z,0.54
2023-05-05T05:54:02.002Z,0.55
2023-05-05T05:55:02.031Z,0.53
2023-05-05T05:56:02.040Z,0.53
2023-05-05T05:57:02.066Z,0.48
2023-05-05T05:58:02.100Z,0.47
2023-05-05T05:59:02.120Z,0.45
2023-05-05T06:00:02.388Z,0.46
2023-05-05T06:01:02.178Z,0.50
2023-05-05T06:02:02.251Z,0.48
2023-05-05T06:03:02.282Z,0.51
2023-05-05T06:04:02.359Z,0.50
2023-05-05T06:05:02.313Z,0.50
2023-05-05T06:06:02.348Z,0.52
2023-05-05T06:07:02.366Z,0.54
2023-05-05T06:08:02.396Z,0.54
2023-05-05T06:09:02.411Z,0.56
2023-05-05T06:10:14.435Z,0.57
2023-05-05T06:11:03.422Z,0.57
2023-05-05T06:12:02.422Z,0.58
2023-05-05T06:13:02.474Z,0.59
2023-05-05T06:14:02.435Z,0.61
2023-05-05T06:15:02.424Z,0.64
2023-05-05T06:16:02.417Z,0.63
2023-05-05T06:17:02.416Z,0.65
2023-05-05T06:18:02.410Z,0.62
2023-05-05T06:19:02.393Z,0.68
2023-05-05T06:20:02.401Z,0.68
2023-05-05T06:21:02.389Z,0.76
2023-05-05T06:22:02.392Z,0.66
2023-05-05T06:23:02.394Z,0.56
2023-05-05T06:24:03.394Z,0.56
2023-05-05T06:25:02.381Z,0.56
2023-05-05T06:26:02.379Z,0.55
2023-05-05T06:27:02.367Z,0.58
2023-05-05T06:28:02.362Z,0.53
2023-05-05T06:29:02.937Z,0.55
2023-05-05T06:30:02.337Z,0.56
2023-05-05T06:31:03.376Z,0.56
2023-05-05T06:32:02.330Z,0.57
2023-05-05T06:33:02.362Z,0.56
2023-05-05T06:34:02.292Z,0.56
2023-05-05T06:35:02.305Z,0.58
2023-05-05T06:36:02.272Z,0.57
2023-05-05T06:37:02.298Z,0.60
2023-05-05T06:38:02.278Z,0.64
2023-05-05T06:39:02.237Z,0.67
2023-05-05T06:40:02.246Z,0.66
2023-05-05T06:41:02.237Z,0.64
2023-05-05T06:42:02.270Z,0.74
2023-05-05T06:43:02.298Z,0.87
2023-05-05T06:44:02.323Z,0.92
2023-05-05T06:45:02.358Z,1.00
2023-05-05T06:46:02.354Z,1.01
2023-05-05T06:47:02.461Z,1.08
2023-05-05T06:48:04.100Z,1.11
2023-05-05T06:49:04.056Z,1.11
2023-05-05T06:50:02.337Z,1.13
2023-05-05T06:51:02.937Z,1.18
2023-05-05T06:52:02.311Z,1.31
2023-05-05T06:53:02.275Z,1.49
2023-05-05T06:54:02.257Z,1.59
2023-05-05T06:55:02.278Z,1.66
2023-05-05T06:56:02.203Z,1.66
2023-05-05T06:57:02.189Z,1.73
2023-05-05T06:58:02.183Z,1.84
2023-05-05T06:59:02.145Z,1.91
2023-05-05T07:00:02.185Z,1.95
2023-05-05T07:01:02.141Z,2.03
2023-05-05T07:02:02.166Z,2.15
2023-05-05T07:03:02.136Z,2.16
2023-05-05T07:04:02.130Z,2.16
2023-05-05T07:05:02.560Z,2.27
2023-05-05T07:06:02.027Z,2.29
2023-05-05T07:07:02.017Z,2.35
2023-05-05T07:08:02.001Z,2.51
2023-05-05T07:09:01.976Z,2.50
2023-05-05T07:10:01.969Z,2.58
2023-05-05T07:11:01.973Z,2.62
2023-05-05T07:12:01.950Z,2.67
2023-05-05T07:13:02.029Z,2.80
2023-05-05T07:14:01.887Z,2.87
2023-05-05T07:15:07.036Z,2.97
2023-05-05T07:16:02.864Z,2.98
2023-05-05T07:17:01.836Z,3.02
2023-05-05T07:18:01.961Z,3.07
2023-05-05T07:19:01.759Z,3.24
2023-05-05T07:20:02.556Z,3.50
2023-05-05T07:21:01.706Z,3.81
2023-05-05T07:22:02.539Z,3.79
2023-05-05T07:23:01.681Z,3.87
2023-05-05T07:24:01.643Z,3.69
2023-05-05T07:25:01.636Z,3.70
2023-05-05T07:26:01.597Z,3.76
2023-05-05T07:27:01.579Z,3.86
2023-05-05T07:28:01.558Z,4.03
2023-05-05T07:29:01.527Z,4.30
2023-05-05T07:30:01.506Z,4.56
2023-05-05T07:31:01.474Z,4.62
2023-05-05T07:32:01.524Z,4.71
2023-05-05T07:33:01.526Z,4.84
2023-05-05T07:34:01.615Z,5.04
2023-05-05T07:35:01.390Z,5.33
2023-05-05T07:36:01.372Z,5.31
2023-05-05T07:37:01.356Z,5.53
2023-05-05T07:38:01.332Z,5.75
2023-05-05T07:39:01.329Z,5.82
2023-05-05T07:40:01.297Z,6.03
2023-05-05T07:41:01.271Z,6.31
2023-05-05T07:42:01.267Z,6.47
2023-05-05T07:43:01.232Z,6.77
2023-05-05T07:44:01.224Z,7.00
2023-05-05T07:45:01.201Z,7.04
2023-05-05T07:46:01.241Z,7.27
2023-05-05T07:47:01.196Z,7.39
2023-05-05T07:48:01.184Z,7.58
2023-05-05T07:49:01.376Z,7.72
2023-05-05T07:50:01.298Z,7.99
2023-05-05T07:51:01.136Z,8.16
2023-05-05T07:52:01.097Z,8.14
2023-05-05T07:53:10.571Z,8.51
2023-05-05T07:54:02.048Z,8.53
2023-05-05T07:55:01.050Z,8.62
2023-05-05T07:56:01.008Z,9.00
2023-05-05T07:57:00.998Z,9.57
2023-05-05T07:58:00.973Z,10.37
2023-05-05T07:59:00.959Z,10.72
2023-05-05T08:00:01.164Z,10.79
2023-05-05T08:01:00.900Z,11.05
2023-05-05T08:02:00.883Z,11.30
2023-05-05T08:03:00.877Z,11.52
2023-05-05T08:04:00.912Z,11.57
2023-05-05T08:05:00.851Z,11.97
2023-05-05T08:06:00.917Z,12.13
2023-05-05T08:07:01.555Z,12.66
2023-05-05T08:08:00.756Z,12.77
2023-05-05T08:09:00.759Z,13.61
2023-05-05T08:10:00.714Z,13.74
2023-05-05T08:11:00.693Z,13.74
2023-05-05T08:12:00.669Z,13.95
2023-05-05T08:13:00.687Z,14.36
2023-05-05T08:14:00.647Z,14.75
2023-05-05T08:15:00.611Z,14.97
2023-05-05T08:16:00.674Z,14.93
2023-05-05T08:17:00.557Z,13.93
2023-05-05T08:18:00.623Z,13.74
2023-05-05T08:19:00.615Z,13.06
2023-05-05T08:20:00.480Z,12.37
2023-05-05T08:21:00.461Z,10.89
2023-05-05T08:22:01.365Z,10.31
2023-05-05T08:23:00.419Z,9.48
2023-05-05T08:24:00.423Z,9.00
2023-05-05T08:25:00.373Z,8.86
2023-05-05T08:26:00.350Z,9.01
2023-05-05T08:27:00.322Z,8.77
2023-05-05T08:28:00.300Z,9.37
2023-05-05T08:29:00.327Z,9.28
2023-05-05T08:30:00.340Z,9.42
2023-05-05T08:31:00.419Z,9.70
2023-05-05T08:32:00.535Z,9.93
2023-05-05T08:33:01.354Z,10.16
2023-05-05T08:34:00.491Z,10.10
2023-05-05T08:35:00.531Z,10.19
2023-05-05T08:36:00.559Z,10.41
2023-05-05T08:37:00.609Z,10.47
2023-05-05T08:38:00.721Z,11.17
2023-05-05T08:39:00.658Z,11.24
2023-05-05T08:40:00.715Z,11.40
2023-05-05T08:41:00.750Z,11.57
2023-05-05T08:42:00.779Z,11.82
2023-05-05T08:43:00.852Z,12.05
2023-05-05T08:44:00.864Z,12.59
2023-05-05T08:45:01.163Z,12.90
2023-05-05T08:46:00.956Z,12.91
2023-05-05T08:47:01.042Z,13.66
2023-05-05T08:48:01.066Z,13.71
2023-05-05T08:49:01.077Z,14.08
2023-05-05T08:50:01.087Z,14.43
2023-05-05T08:51:03.300Z,14.94
2023-05-05T08:52:01.098Z,14.97
2023-05-05T08:53:01.110Z,15.08
2023-05-05T08:54:01.161Z,15.44
2023-05-05T08:55:01.041Z,16.09
2023-05-05T08:56:01.002Z,17.27
2023-05-05T08:57:00.995Z,17.74
2023-05-05T08:58:00.993Z,18.14
2023-05-05T08:59:00.944Z,18.85
2023-05-05T09:00:01.174Z,18.65
2023-05-05T09:01:00.996Z,19.49
2023-05-05T09:02:00.989Z,19.64
2023-05-05T09:03:01.367Z,20.35
2023-05-05T09:04:01.083Z,20.62
2023-05-05T09:05:01.120Z,21.28
2023-05-05T09:06:01.148Z,21.75
2023-05-05T09:07:01.190Z,22.04
2023-05-05T09:08:01.218Z,22.59
2023-05-05T09:09:01.245Z,23.08
2023-05-05T09:10:01.349Z,23.19
2023-05-05T09:11:01.316Z,23.49
2023-05-05T09:12:01.347Z,23.90
2023-05-05T09:13:01.482Z,24.50
2023-05-05T09:14:01.409Z,24.68
2023-05-05T09:15:01.447Z,24.91
2023-05-05T09:16:01.476Z,25.44
2023-05-05T09:17:01.560Z,23.95
2023-05-05T09:18:01.630Z,22.68
2023-05-05T09:19:01.521Z,22.74
2023-05-05T09:20:01.508Z,22.75
2023-05-05T09:21:01.491Z,22.48
2023-05-05T09:22:01.474Z,22.27
2023-05-05T09:23:01.457Z,21.89
2023-05-05T09:24:07.780Z,21.87
2023-05-05T09:25:02.407Z,21.90
2023-05-05T09:26:01.470Z,21.93
2023-05-05T09:27:01.396Z,22.04
2023-05-05T09:28:02.043Z,22.24
2023-05-05T09:29:02.092Z,22.64
2023-05-05T09:30:01.347Z,22.38
2023-05-05T09:31:01.338Z,22.20
2023-05-05T09:32:01.295Z,21.93
2023-05-05T09:33:01.325Z,21.40
2023-05-05T09:34:01.269Z,21.68
2023-05-05T09:35:01.256Z,21.11
2023-05-05T09:36:01.240Z,20.96
2023-05-05T09:37:01.212Z,21.00
2023-05-05T09:38:01.187Z,20.92
2023-05-05T09:39:01.197Z,20.77
2023-05-05T09:40:01.208Z,20.94
2023-05-05T09:41:01.177Z,20.67
2023-05-05T09:42:01.309Z,20.64
2023-05-05T09:43:01.221Z,20.67
2023-05-05T09:44:01.097Z,20.42
2023-05-05T09:45:01.164Z,19.80
2023-05-05T09:46:01.161Z,20.33
2023-05-05T09:47:01.114Z,20.11
2023-05-05T09:48:01.173Z,20.10
2023-05-05T09:49:01.114Z,19.56
2023-05-05T09:50:01.112Z,19.60
2023-05-05T09:51:01.104Z,19.12
2023-05-05T09:52:01.083Z,19.50
2023-05-05T09:53:01.096Z,19.27
2023-05-05T09:54:01.077Z,19.35
2023-05-05T09:55:02.067Z,19.19
2023-05-05T09:56:01.100Z,18.71
2023-05-05T09:57:01.077Z,18.91
2023-05-05T09:58:02.071Z,18.82
2023-05-05T09:59:01.064Z,18.77
2023-05-05T10:00:01.245Z,18.93
2023-05-05T10:01:01.064Z,18.35
2023-05-05T10:02:01.130Z,18.37
2023-05-05T10:03:01.144Z,18.50
2023-05-05T10:04:02.034Z,18.29
2023-05-05T10:05:02.431Z,18.16
2023-05-05T10:06:02.085Z,17.96
2023-05-05T10:07:01.091Z,17.72
2023-05-05T10:08:01.107Z,17.97
2023-05-05T10:09:01.119Z,17.71
2023-05-05T10:10:01.134Z,17.79
2023-05-05T10:11:01.153Z,17.43
2023-05-05T10:12:01.149Z,17.43
2023-05-05T10:13:02.179Z,17.23
2023-05-05T10:14:01.273Z,17.58
2023-05-05T10:15:01.170Z,20.85
2023-05-05T10:16:01.200Z,20.10
2023-05-05T10:17:01.167Z,20.23
2023-05-05T10:18:07.852Z,17.76
2023-05-05T10:19:02.185Z,14.19
2023-05-05T10:20:01.182Z,8.91
2023-05-05T10:21:01.176Z,6.20
2023-05-05T10:22:01.123Z,4.37
2023-05-05T10:23:01.091Z,3.73
2023-05-05T10:24:01.059Z,3.34
2023-05-05T10:25:01.038Z,3.30
2023-05-05T10:26:01.022Z,2.70
2023-05-05T10:27:01.008Z,3.02
2023-05-05T10:28:00.973Z,2.46
2023-05-05T10:29:00.955Z,2.46
2023-05-05T10:30:01.213Z,2.45
2023-05-05T10:31:01.019Z,2.68
2023-05-05T10:32:01.084Z,2.44
2023-05-05T10:33:18.304Z,2.18
2023-05-05T10:34:02.175Z,1.93
2023-05-05T10:35:02.108Z,2.18
2023-05-05T10:36:01.036Z,2.07
2023-05-05T10:37:01.012Z,2.01
2023-05-05T10:38:01.006Z,1.73
2023-05-05T10:39:00.992Z,1.61
2023-05-05T10:40:00.956Z,1.88
2023-05-05T10:41:00.931Z,1.70
2023-05-05T10:42:00.916Z,1.38
2023-05-05T10:43:00.873Z,1.29
2023-05-05T10:44:03.647Z,1.31
2023-05-05T10:45:01.238Z,1.23
2023-05-05T10:46:00.973Z,1.11
2023-05-05T10:47:00.762Z,1.09
2023-05-05T10:48:00.864Z,1.13
2023-05-05T10:49:00.761Z,1.07
2023-05-05T10:50:00.698Z,1.09
2023-05-05T10:51:00.633Z,0.82
2023-05-05T10:52:00.634Z,0.70
2023-05-05T10:53:00.588Z,0.67
2023-05-05T10:54:00.629Z,0.64
2023-05-05T10:55:00.545Z,0.54
2023-05-05T10:56:00.510Z,0.54
2023-05-05T10:57:00.487Z,0.50
2023-05-05T10:58:00.484Z,0.56
2023-05-05T10:59:00.952Z,0.57
2023-05-05T11:00:00.404Z,0.58
2023-05-05T11:01:00.407Z,0.55
2023-05-05T11:02:00.345Z,0.52
2023-05-05T11:03:00.428Z,0.50
2023-05-05T11:04:00.353Z,0.48
2023-05-05T11:05:00.288Z,0.50
2023-05-05T11:06:00.263Z,0.50
2023-05-05T11:07:00.243Z,0.50
2023-05-05T11:08:00.234Z,0.50
2023-05-05T11:09:00.205Z,0.50
2023-05-05T11:10:00.229Z,0.51
2023-05-05T11:11:00.160Z,0.52
2023-05-05T11:12:00.163Z,0.52
2023-05-05T11:13:00.200Z,0.53
2023-05-05T11:14:00.161Z,0.55
2023-05-05T11:15:00.153Z,0.56
2023-05-05T11:16:00.108Z,0.62
2023-05-05T11:17:00.131Z,0.64
2023-05-05T11:18:00.086Z,0.63
2023-05-05T11:19:00.060Z,0.65
2023-05-05T11:20:00.022Z,0.68
2023-05-05T11:21:00.017Z,0.74
2023-05-05T11:21:59.992Z,0.78
2023-05-05T11:22:59.958Z,0.82
2023-05-05T11:23:59.947Z,0.89
2023-05-05T11:24:59.929Z,0.90
2023-05-05T11:25:59.953Z,0.94
2023-05-05T11:26:59.976Z,1.08
2023-05-05T11:28:00.018Z,1.12
2023-05-05T11:29:00.052Z,1.10
2023-05-05T11:30:00.129Z,1.10
2023-05-05T11:31:00.201Z,1.19
2023-05-05T11:32:00.178Z,1.20
2023-05-05T11:33:00.257Z,1.23
2023-05-05T11:34:00.328Z,1.29
2023-05-05T11:35:00.300Z,1.31
2023-05-05T11:36:00.379Z,1.37
2023-05-05T11:37:00.376Z,1.49
2023-05-05T11:38:00.473Z,1.50
2023-05-05T11:39:00.444Z,1.56
2023-05-05T11:40:00.495Z,1.59
2023-05-05T11:41:00.531Z,1.64
2023-05-05T11:42:02.296Z,1.64
2023-05-05T11:43:01.177Z,1.74
2023-05-05T11:44:00.540Z,1.83
2023-05-05T11:45:00.531Z,1.87
2023-05-05T11:46:00.550Z,1.89
2023-05-05T11:47:00.493Z,1.88
2023-05-05T11:48:00.529Z,1.91
2023-05-05T11:49:01.076Z,1.96
2023-05-05T11:50:00.549Z,2.04
2023-05-05T11:51:00.451Z,2.09
2023-05-05T11:52:00.461Z,2.09
2023-05-05T11:53:00.426Z,2.11
2023-05-05T11:54:00.417Z,2.18
2023-05-05T11:55:00.412Z,2.25
2023-05-05T11:56:00.394Z,2.24
2023-05-05T11:57:00.427Z,2.27
2023-05-05T11:58:00.373Z,2.38
2023-05-05T11:59:00.363Z,2.39
2023-05-05T12:00:00.358Z,2.41
2023-05-05T12:01:00.331Z,2.47
2023-05-05T12:02:00.316Z,2.56
2023-05-05T12:03:00.414Z,2.49
2023-05-05T12:04:00.402Z,2.63
2023-05-05T12:05:00.405Z,2.56
2023-05-05T12:06:00.343Z,2.67
2023-05-05T12:07:00.261Z,2.73
2023-05-05T12:08:00.239Z,2.70
2023-05-05T12:09:00.216Z,2.76
2023-05-05T12:10:00.240Z,2.77
2023-05-05T12:11:00.202Z,2.74
2023-05-05T12:12:00.179Z,2.79
2023-05-05T12:13:01.212Z,2.80
2023-05-05T12:14:00.152Z,2.83
2023-05-05T12:15:00.140Z,2.88
2023-05-05T12:16:00.192Z,2.95
2023-05-05T12:17:00.109Z,3.08
2023-05-05T12:18:02.455Z,3.12
2023-05-05T12:19:00.103Z,3.15
2023-05-05T12:20:00.085Z,3.13
2023-05-05T12:21:00.116Z,3.22
2023-05-05T12:22:00.134Z,3.15
2023-05-05T12:23:00.050Z,3.21
2023-05-05T12:24:00.047Z,3.13
2023-05-05T12:25:00.028Z,3.27
2023-05-05T12:26:00.011Z,3.44
2023-05-05T12:26:59.992Z,3.37
2023-05-05T12:27:59.985Z,3.59
2023-05-05T12:28:59.975Z,3.65
2023-05-05T12:29:59.954Z,3.73
2023-05-05T12:31:00.116Z,3.93
2023-05-05T12:32:00.021Z,4.15
2023-05-05T12:32:59.997Z,4.21
2023-05-05T12:33:59.929Z,4.31
2023-05-05T12:34:59.912Z,4.41
2023-05-05T12:35:59.900Z,4.44
2023-05-05T12:36:59.902Z,4.45
2023-05-05T12:37:59.964Z,4.46
2023-05-05T12:38:59.887Z,4.38
2023-05-05T12:39:59.865Z,4.42
2023-05-05T12:40:59.849Z,4.47
2023-05-05T12:41:59.821Z,4.56
2023-05-05T12:42:59.812Z,4.61
2023-05-05T12:43:59.796Z,4.58
2023-05-05T12:44:59.776Z,4.66
2023-05-05T12:45:59.771Z,4.70
2023-05-05T12:46:59.738Z,4.69
2023-05-05T12:47:59.794Z,4.68
2023-05-05T12:48:59.697Z,4.70
2023-05-05T12:49:59.714Z,4.83
2023-05-05T12:50:59.669Z,4.82
2023-05-05T12:51:59.664Z,4.81
2023-05-05T12:52:59.646Z,4.80
2023-05-05T12:53:59.754Z,4.81
2023-05-05T12:54:59.647Z,4.75
2023-05-05T12:55:59.597Z,4.85
2023-05-05T12:56:59.641Z,4.84
2023-05-05T12:57:59.596Z,4.79
2023-05-05T12:58:59.548Z,4.96
2023-05-05T12:59:59.544Z,4.88
2023-05-05T13:00:59.631Z,4.86
2023-05-05T13:01:59.716Z,4.81
2023-05-05T13:02:59.520Z,4.93
2023-05-05T13:03:59.488Z,4.91
2023-05-05T13:04:59.458Z,4.99
2023-05-05T13:05:59.436Z,4.92
2023-05-05T13:06:59.432Z,5.14
2023-05-05T13:07:59.431Z,5.05
2023-05-05T13:08:59.393Z,4.95
2023-05-05T13:09:59.405Z,5.24
2023-05-05T13:10:59.370Z,5.29
2023-05-05T13:11:59.356Z,5.17
2023-05-05T13:12:59.394Z,5.06
2023-05-05T13:13:59.348Z,5.14
2023-05-05T13:14:59.317Z,5.03